createdAt,value
2023-05-03T00:02:18.477Z,1.70
2023-05-03T00:04:48.065Z,1.47
2023-05-03T00:07:17.063Z,2.07
2023-05-03T00:09:44.726Z,1.60
2023-05-03T00:12:12.585Z,1.57
2023-05-03T00:14:41.705Z,1.40
2023-05-03T00:17:09.518Z,1.77
2023-05-03T00:19:38.046Z,1.83
2023-05-03T00:22:05.833Z,1.50
2023-05-03T00:24:33.636Z,1.80
2023-05-03T00:27:01.610Z,1.90
2023-05-03T00:29:30.511Z,1.63
2023-05-03T00:32:00.023Z,1.57
2023-05-03T00:34:27.876Z,1.50
2023-05-03T00:36:55.696Z,1.23
2023-05-03T00:39:23.495Z,1.40
2023-05-03T00:41:51.271Z,1.80
2023-05-03T00:44:19.028Z,1.70
2023-05-03T00:46:46.783Z,1.73
2023-05-03T00:49:15.985Z,1.57
2023-05-03T00:51:43.789Z,1.50
2023-05-03T00:54:12.581Z,1.50
2023-05-03T00:56:51.192Z,1.77
2023-05-03T00:59:19.995Z,1.77
2023-05-03T01:01:50.035Z,1.87
2023-05-03T01:04:20.407Z,1.70
2023-05-03T01:06:56.808Z,1.57
2023-05-03T01:09:33.032Z,1.97
2023-05-03T01:12:14.898Z,1.90
2023-05-03T01:14:50.868Z,1.80
2023-05-03T01:17:22.849Z,1.70
2023-05-03T01:19:54.574Z,2.30
2023-05-03T01:22:33.203Z,1.93
2023-05-03T01:25:09.292Z,1.77
2023-05-03T01:27:37.444Z,2.00
2023-05-03T01:30:06.923Z,2.03
2023-05-03T01:32:47.608Z,1.90
2023-05-03T01:35:30.138Z,2.07
2023-05-03T01:37:58.648Z,1.87
2023-05-03T01:40:29.455Z,1.83
2023-05-03T01:42:58.107Z,1.73
2023-05-03T01:45:26.821Z,2.17
2023-05-03T01:47:54.717Z,2.17
2023-05-03T01:50:24.107Z,2.23
2023-05-03T01:52:52.587Z,1.80
2023-05-03T01:55:20.386Z,2.33
2023-05-03T01:57:49.506Z,1.70
2023-05-03T02:00:17.480Z,1.83
2023-05-03T02:02:45.363Z,2.27
2023-05-03T02:05:13.335Z,1.80
2023-05-03T02:07:41.138Z,2.00
2023-05-03T02:10:14.357Z,1.47
2023-05-03T02:12:42.546Z,2.00
2023-05-03T02:15:12.938Z,1.97
2023-05-03T02:17:42.415Z,2.20
2023-05-03T02:20:10.911Z,2.27
2023-05-03T02:22:38.841Z,2.20
2023-05-03T02:25:07.571Z,2.10
2023-05-03T02:27:35.341Z,2.20
2023-05-03T02:30:04.842Z,2.20
2023-05-03T02:32:34.261Z,1.80
2023-05-03T02:35:01.983Z,1.60
2023-05-03T02:37:29.825Z,1.90
2023-05-03T02:39:58.031Z,1.90
2023-05-03T02:42:25.784Z,2.10
2023-05-03T02:44:53.496Z,1.73
2023-05-03T02:47:21.564Z,2.00
2023-05-03T02:49:51.208Z,2.10
2023-05-03T02:52:18.932Z,1.83
2023-05-03T02:54:47.115Z,2.20
2023-05-03T02:57:14.894Z,1.83
2023-05-03T02:59:42.763Z,1.70
2023-05-03T03:02:10.528Z,1.60
2023-05-03T03:04:38.309Z,1.97
2023-05-03T03:07:07.487Z,1.80
2023-05-03T03:09:35.920Z,1.70
2023-05-03T03:12:04.152Z,2.10
2023-05-03T03:14:32.056Z,2.00
2023-05-03T03:16:59.920Z,1.63
2023-05-03T03:19:27.705Z,2.00
2023-05-03T03:21:55.542Z,1.83
2023-05-03T03:24:24.717Z,1.77
2023-05-03T03:26:52.489Z,1.67
2023-05-03T03:29:21.390Z,2.00
2023-05-03T03:31:49.204Z,1.97
2023-05-03T03:34:16.966Z,2.00
2023-05-03T03:36:44.707Z,1.93
2023-05-03T03:39:12.728Z,2.00
2023-05-03T03:41:42.433Z,2.00
2023-05-03T03:44:10.168Z,1.57
2023-05-03T03:46:37.925Z,1.70
2023-05-03T03:49:05.784Z,2.00
2023-05-03T03:51:33.545Z,1.93
2023-05-03T03:54:01.325Z,2.07
2023-05-03T03:56:29.103Z,1.77
2023-05-03T03:58:58.326Z,2.07
2023-05-03T04:01:26.773Z,1.60
2023-05-03T04:03:54.605Z,2.00
2023-05-03T04:06:22.475Z,1.67
2023-05-03T04:08:50.215Z,1.40
2023-05-03T04:11:18.073Z,1.87
2023-05-03T04:13:45.786Z,2.00
2023-05-03T04:16:15.473Z,1.90
2023-05-03T04:18:43.413Z,2.00
2023-05-03T04:21:11.154Z,1.80
2023-05-03T04:23:39.418Z,1.83
2023-05-03T04:26:10.361Z,2.37
2023-05-03T04:28:45.329Z,1.70
2023-05-03T04:31:14.863Z,1.93
2023-05-03T04:33:42.680Z,1.90
2023-05-03T04:36:10.750Z,1.90
2023-05-03T04:38:38.662Z,1.83
2023-05-03T04:41:08.931Z,1.60
2023-05-03T04:43:36.709Z,1.93
2023-05-03T04:46:04.878Z,1.87
2023-05-03T04:48:36.376Z,1.50
2023-05-03T04:51:04.405Z,2.03
2023-05-03T04:53:32.288Z,1.57
2023-05-03T04:56:00.217Z,2.10
2023-05-03T04:58:28.260Z,1.67
2023-05-03T05:00:56.032Z,1.30
2023-05-03T05:03:23.898Z,1.37
2023-05-03T05:05:53.037Z,1.40
2023-05-03T05:08:21.791Z,1.50
2023-05-03T05:10:49.698Z,1.47
2023-05-03T05:13:17.567Z,1.40
2023-05-03T05:15:45.295Z,1.80
2023-05-03T05:18:13.231Z,1.63
2023-05-03T05:20:41.033Z,1.60
2023-05-03T05:23:10.264Z,1.50
2023-05-03T05:25:38.050Z,1.60
2023-05-03T05:28:06.142Z,1.73
2023-05-03T05:30:35.062Z,1.27
2023-05-03T05:33:03.603Z,1.20
2023-05-03T05:35:31.639Z,1.13
2023-05-03T05:37:59.343Z,1.17
2023-05-03T05:40:28.508Z,1.10
2023-05-03T05:42:56.354Z,1.10
2023-05-03T05:45:24.237Z,1.50
2023-05-03T05:47:52.265Z,1.27
2023-05-03T05:50:20.413Z,1.27
2023-05-03T05:52:48.392Z,1.10
2023-05-03T05:55:16.465Z,1.13
2023-05-03T05:57:46.137Z,1.20
2023-05-03T06:00:15.517Z,1.33
2023-05-03T06:02:43.734Z,1.30
2023-05-03T06:05:11.931Z,2.00
2023-05-03T06:07:40.638Z,1.33
2023-05-03T06:10:09.417Z,1.17
2023-05-03T06:12:37.675Z,1.30
2023-05-03T06:15:08.715Z,0.80
2023-05-03T06:17:36.827Z,1.20
2023-05-03T06:20:05.909Z,1.23
2023-05-03T06:22:34.011Z,0.90
2023-05-03T06:25:01.915Z,1.00
2023-05-03T06:27:29.721Z,0.93
2023-05-03T06:29:57.507Z,0.90
2023-05-03T06:32:26.893Z,1.37
2023-05-03T06:34:54.665Z,0.90
2023-05-03T06:37:22.669Z,1.03
2023-05-03T06:39:50.833Z,0.90
2023-05-03T06:42:18.609Z,0.97
2023-05-03T06:44:46.562Z,0.97
2023-05-03T06:47:14.312Z,0.70
2023-05-03T06:49:43.395Z,0.80
2023-05-03T06:52:11.885Z,1.20
2023-05-03T06:54:40.363Z,0.83
2023-05-03T06:57:08.867Z,1.00
2023-05-03T06:59:36.595Z,0.60
2023-05-03T07:02:04.430Z,0.90
2023-05-03T07:04:32.519Z,0.80
2023-05-03T07:07:01.715Z,0.97
2023-05-03T07:09:42.085Z,0.80
2023-05-03T07:12:11.221Z,0.80
2023-05-03T07:14:39.597Z,1.00
2023-05-03T07:17:07.504Z,0.90
2023-05-03T07:19:37.281Z,1.00
2023-05-03T07:22:06.453Z,0.80
2023-05-03T07:24:34.437Z,0.83
2023-05-03T07:27:02.272Z,0.73
2023-05-03T07:29:30.111Z,1.30
2023-05-03T07:31:57.893Z,0.87
2023-05-03T07:34:25.733Z,0.70
2023-05-03T07:36:53.570Z,0.70
2023-05-03T07:39:25.893Z,0.73
2023-05-03T07:41:53.659Z,0.87
2023-05-03T07:44:21.505Z,0.90
2023-05-03T07:46:49.286Z,0.80
2023-05-03T07:49:17.345Z,1.53
2023-05-03T07:51:45.120Z,0.90
2023-05-03T07:54:13.222Z,1.00
2023-05-03T07:56:42.377Z,0.90
2023-05-03T07:59:10.721Z,0.80
2023-05-03T08:01:38.700Z,0.80
2023-05-03T08:04:06.961Z,1.07
2023-05-03T08:06:36.499Z,1.00
2023-05-03T08:09:04.707Z,1.17
2023-05-03T08:11:32.938Z,1.10
2023-05-03T08:14:02.098Z,1.30
2023-05-03T08:16:29.926Z,1.43
2023-05-03T08:18:57.886Z,1.10
2023-05-03T08:21:26.223Z,1.30
2023-05-03T08:23:54.675Z,1.17
2023-05-03T08:26:24.252Z,1.17
2023-05-03T08:28:52.128Z,1.50
2023-05-03T08:31:21.455Z,0.93
2023-05-03T08:33:49.251Z,1.03
2023-05-03T08:36:16.974Z,0.80
2023-05-03T08:38:44.835Z,1.30
2023-05-03T08:41:22.582Z,1.07
2023-05-03T08:43:54.267Z,1.10
2023-05-03T08:46:25.657Z,1.20
2023-05-03T08:48:54.397Z,1.17
2023-05-03T08:51:24.617Z,0.83
2023-05-03T08:53:53.492Z,1.13
2023-05-03T08:56:26.842Z,1.37
2023-05-03T08:58:55.012Z,1.17
2023-05-03T09:01:24.216Z,1.17
2023-05-03T09:03:52.922Z,1.40
2023-05-03T09:06:22.227Z,1.17
2023-05-03T09:08:50.200Z,1.33
2023-05-03T09:11:25.146Z,1.00
2023-05-03T09:13:53.504Z,1.47
2023-05-03T09:16:27.487Z,1.20
2023-05-03T09:18:59.632Z,1.43
2023-05-03T09:21:27.418Z,1.57
2023-05-03T09:23:55.285Z,1.47
2023-05-03T09:26:30.374Z,1.27
2023-05-03T09:29:00.123Z,1.23
2023-05-03T09:31:30.398Z,1.40
2023-05-03T09:33:58.881Z,1.50
2023-05-03T09:36:27.648Z,1.30
2023-05-03T09:38:56.153Z,1.40
2023-05-03T09:41:32.073Z,1.77
2023-05-03T09:44:03.056Z,1.60
2023-05-03T09:46:33.327Z,1.10
2023-05-03T09:49:01.390Z,1.37
2023-05-03T09:51:30.144Z,1.30
2023-05-03T09:53:58.965Z,1.40
2023-05-03T09:56:27.498Z,1.40
2023-05-03T09:58:55.537Z,1.60
2023-05-03T10:01:25.806Z,1.67
2023-05-03T10:04:00.770Z,1.60
2023-05-03T10:06:33.027Z,1.33
2023-05-03T10:09:05.833Z,1.50
2023-05-03T10:11:36.467Z,1.77
2023-05-03T10:14:06.759Z,1.43
2023-05-03T10:16:38.649Z,1.90
2023-05-03T10:19:14.161Z,1.97
2023-05-03T10:21:54.373Z,2.03
2023-05-03T10:24:22.268Z,1.80
2023-05-03T10:26:52.358Z,1.70
2023-05-03T10:29:54.524Z,1.77
2023-05-03T10:32:36.412Z,1.67
2023-05-03T10:35:10.444Z,1.60
2023-05-03T10:37:39.802Z,1.60
2023-05-03T10:40:10.201Z,1.70
2023-05-03T10:42:38.570Z,1.60
2023-05-03T10:45:09.953Z,1.90
2023-05-03T10:47:38.042Z,1.90
2023-05-03T10:50:32.304Z,1.97
2023-05-03T10:53:00.185Z,1.97
2023-05-03T10:55:28.031Z,2.30
2023-05-03T10:57:59.081Z,1.60
2023-05-03T11:00:34.861Z,1.60
2023-05-03T11:03:12.471Z,1.93
2023-05-03T11:05:42.570Z,1.87
2023-05-03T11:08:12.812Z,1.90
2023-05-03T11:10:40.854Z,2.00
2023-05-03T11:13:08.738Z,1.70
2023-05-03T11:15:36.935Z,2.00
2023-05-03T11:18:06.014Z,2.10
2023-05-03T11:20:34.388Z,1.60
2023-05-03T11:23:03.899Z,2.07
2023-05-03T11:25:33.401Z,1.80
2023-05-03T11:28:01.276Z,2.00
2023-05-03T11:30:29.739Z,1.90
2023-05-03T11:32:57.711Z,2.00
2023-05-03T11:35:26.957Z,2.20
2023-05-03T11:37:54.956Z,1.80
2023-05-03T11:40:24.309Z,2.03
2023-05-03T11:42:53.427Z,1.80
2023-05-03T11:45:23.385Z,2.17
2023-05-03T11:47:52.174Z,2.00
2023-05-03T11:50:20.954Z,2.00
2023-05-03T11:52:48.952Z,2.30
2023-05-03T11:55:17.875Z,1.87
2023-05-03T11:57:47.450Z,1.93
2023-05-03T12:00:17.211Z,2.30
2023-05-03T12:02:45.738Z,2.13
2023-05-03T12:05:14.336Z,1.83
2023-05-03T12:07:44.073Z,2.33
2023-05-03T12:10:22.802Z,2.03
2023-05-03T12:12:59.755Z,2.10
2023-05-03T12:15:33.914Z,2.43
2023-05-03T12:18:04.736Z,2.20
2023-05-03T12:21:28.120Z,2.50
2023-05-03T12:23:21.949Z,2.40
2023-05-03T12:25:52.814Z,2.30
2023-05-03T12:28:22.497Z,1.90
2023-05-03T12:30:53.269Z,2.13
2023-05-03T12:33:22.994Z,2.30
2023-05-03T12:35:53.373Z,2.60
2023-05-03T12:38:25.263Z,2.10
2023-05-03T12:40:54.597Z,2.30
2023-05-03T12:43:24.079Z,2.23
2023-05-03T12:46:08.195Z,2.30
2023-05-03T12:48:39.927Z,2.30
2023-05-03T12:51:19.123Z,2.40
2023-05-03T12:53:54.333Z,2.77
2023-05-03T12:56:24.702Z,2.33
2023-05-03T13:04:16.124Z,2.63
2023-05-03T13:06:45.238Z,2.37
2023-05-03T13:09:20.659Z,2.50
2023-05-03T13:11:51.187Z,2.73
2023-05-03T13:14:20.753Z,2.50
2023-05-03T13:16:49.274Z,2.60
2023-05-03T13:19:17.818Z,2.20
2023-05-03T13:21:48.182Z,2.33
2023-05-03T13:24:16.374Z,2.60
2023-05-03T13:26:44.210Z,2.83
2023-05-03T13:29:11.993Z,2.70
2023-05-03T13:31:41.460Z,2.93
2023-05-03T13:34:09.328Z,3.00
2023-05-03T13:36:37.392Z,2.97
2023-05-03T13:39:07.039Z,2.30
2023-05-03T13:41:34.857Z,2.47
2023-05-03T13:44:02.676Z,2.57
2023-05-03T13:46:30.676Z,2.50
2023-05-03T13:49:00.000Z,2.47
2023-05-03T13:51:28.577Z,2.50
2023-05-03T13:53:56.437Z,2.30
2023-05-03T13:56:24.279Z,2.33
2023-05-03T13:58:51.950Z,2.30
2023-05-03T14:01:19.956Z,2.33
2023-05-03T14:03:47.988Z,2.10
2023-05-03T14:06:17.185Z,2.40
2023-05-03T14:08:44.971Z,2.30
2023-05-03T14:11:16.147Z,2.23
2023-05-03T14:13:56.295Z,2.07
2023-05-03T14:18:57.221Z,2.43
2023-05-03T14:21:27.159Z,2.80
2023-05-03T14:23:56.597Z,1.87
2023-05-03T14:26:26.090Z,2.30
2023-05-03T14:28:53.956Z,2.10
2023-05-03T14:31:21.892Z,2.43
2023-05-03T14:33:49.629Z,2.20
2023-05-03T14:36:17.497Z,2.23
2023-05-03T14:38:49.265Z,2.60
2023-05-03T14:41:17.029Z,2.27
2023-05-03T14:43:44.727Z,2.27
2023-05-03T14:46:12.481Z,2.70
2023-05-03T14:48:40.255Z,2.67
2023-05-03T14:51:07.976Z,2.20
2023-05-03T14:53:36.059Z,2.67
2023-05-03T14:56:06.086Z,2.43
2023-05-03T14:58:34.147Z,2.30
2023-05-03T15:01:02.439Z,2.53
2023-05-03T15:03:30.642Z,2.80
2023-05-03T15:05:58.456Z,2.53
2023-05-03T15:08:27.577Z,2.77
2023-05-03T15:10:55.364Z,2.47
2023-05-03T15:13:25.212Z,2.10
2023-05-03T15:15:53.405Z,2.30
2023-05-03T15:18:21.204Z,2.50
2023-05-03T15:20:48.954Z,2.37
2023-05-03T15:23:16.711Z,2.30
2023-05-03T15:25:44.793Z,2.43
2023-05-03T15:28:12.551Z,2.43
2023-05-03T15:30:41.694Z,2.50
2023-05-03T15:33:10.983Z,2.23
2023-05-03T15:35:40.744Z,2.27
2023-05-03T15:38:08.703Z,2.70
2023-05-03T15:40:36.562Z,2.60
2023-05-03T15:43:04.354Z,1.93
2023-05-03T15:45:32.746Z,2.30
2023-05-03T15:48:02.090Z,2.57
2023-05-03T15:50:30.895Z,2.10
2023-05-03T15:52:58.876Z,2.53
2023-05-03T15:55:26.967Z,2.63
2023-05-03T15:57:57.000Z,2.23
2023-05-03T16:00:25.324Z,2.30
2023-05-03T16:02:53.195Z,2.33
2023-05-03T16:05:23.117Z,2.17
2023-05-03T16:07:51.789Z,2.93
2023-05-03T16:10:21.720Z,2.23
2023-05-03T16:12:50.972Z,2.23
2023-05-03T16:15:18.960Z,2.20
2023-05-03T16:17:46.765Z,2.63
2023-05-03T16:20:15.214Z,2.47
2023-05-03T16:22:46.036Z,2.50
2023-05-03T16:25:14.610Z,2.40
2023-05-03T16:27:42.371Z,2.43
2023-05-03T16:30:11.153Z,2.43
2023-05-03T16:32:38.981Z,2.30
2023-05-03T16:35:07.504Z,2.00
2023-05-03T16:37:37.393Z,2.37
2023-05-03T16:40:11.484Z,2.30
2023-05-03T16:42:40.900Z,2.50
2023-05-03T16:45:10.748Z,2.17
2023-05-03T16:47:38.926Z,2.43
2023-05-03T16:50:08.588Z,2.70
2023-05-03T16:52:39.987Z,2.00
2023-05-03T16:55:10.764Z,2.03
2023-05-03T16:57:39.916Z,2.40
2023-05-03T17:00:09.985Z,2.53
2023-05-03T17:02:39.107Z,2.67
2023-05-03T17:05:08.676Z,2.20
2023-05-03T17:07:36.717Z,2.50
2023-05-03T17:10:06.269Z,1.90
2023-05-03T17:12:35.857Z,2.40
2023-05-03T17:15:03.799Z,2.30
2023-05-03T17:17:32.785Z,2.07
2023-05-03T17:20:00.681Z,2.53
2023-05-03T17:22:28.695Z,2.40
2023-05-03T17:24:58.274Z,2.37
2023-05-03T17:27:27.393Z,2.73
2023-05-03T17:29:57.493Z,2.47
2023-05-03T17:32:25.475Z,2.40
2023-05-03T17:34:53.306Z,2.10
2023-05-03T17:37:23.206Z,2.40
2023-05-03T17:39:50.952Z,2.23
2023-05-03T17:42:19.068Z,2.70
2023-05-03T17:44:46.885Z,2.40
2023-05-03T17:47:16.622Z,2.30
2023-05-03T17:49:44.445Z,2.17
2023-05-03T17:52:12.185Z,2.40
2023-05-03T17:54:40.749Z,2.27
2023-05-03T17:57:08.597Z,2.63
2023-05-03T17:59:36.617Z,2.30
2023-05-03T18:02:04.451Z,2.33
2023-05-03T18:04:33.877Z,2.60
2023-05-03T18:07:01.777Z,2.27
2023-05-03T18:09:30.778Z,2.70
2023-05-03T18:12:00.006Z,2.63
2023-05-03T18:14:27.985Z,2.40
2023-05-03T18:16:56.164Z,2.50
2023-05-03T18:19:24.096Z,2.73
2023-05-03T18:21:53.192Z,2.90
2023-05-03T18:24:20.991Z,2.40
2023-05-03T18:26:49.593Z,2.63
2023-05-03T18:29:17.506Z,2.77
2023-05-03T18:31:45.396Z,2.53
2023-05-03T18:34:13.232Z,2.80
2023-05-03T18:36:40.963Z,2.50
2023-05-03T18:39:10.328Z,2.70
2023-05-03T18:41:38.473Z,2.73
2023-05-03T18:44:07.808Z,2.70
2023-05-03T18:46:37.248Z,2.70
2023-05-03T18:49:05.709Z,2.57
2023-05-03T18:51:33.562Z,2.57
2023-05-03T18:54:01.379Z,3.07
2023-05-03T18:56:33.279Z,2.60
2023-05-03T18:59:01.517Z,2.57
2023-05-03T19:01:29.861Z,2.67
2023-05-03T19:03:57.812Z,2.60
2023-05-03T19:06:25.661Z,2.73
2023-05-03T19:08:54.364Z,2.50
2023-05-03T19:11:22.171Z,2.37
2023-05-03T19:13:51.974Z,2.67
2023-05-03T19:16:19.827Z,2.30
2023-05-03T19:18:48.136Z,2.57
2023-05-03T19:21:17.318Z,2.70
2023-05-03T19:23:45.528Z,2.57
2023-05-03T19:26:13.463Z,3.00
2023-05-03T19:28:41.298Z,2.50
2023-05-03T19:31:10.865Z,2.80
2023-05-03T19:33:38.726Z,2.80
2023-05-03T19:36:07.330Z,2.60
2023-05-03T19:38:36.581Z,2.10
2023-05-03T19:41:08.258Z,2.27
2023-05-03T19:43:36.290Z,2.67
2023-05-03T19:46:04.108Z,2.87
2023-05-03T19:48:33.361Z,2.57
2023-05-03T19:51:02.457Z,2.60
2023-05-03T19:53:31.423Z,2.50
2023-05-03T19:56:00.323Z,3.10
2023-05-03T19:58:28.969Z,3.00
2023-05-03T20:00:59.962Z,3.13
2023-05-03T20:03:28.652Z,2.73
2023-05-03T20:05:58.369Z,2.90
2023-05-03T20:08:26.358Z,2.97
2023-05-03T20:10:55.647Z,3.03
2023-05-03T20:13:25.915Z,2.90
2023-05-03T20:15:53.943Z,2.60
2023-05-03T20:18:22.040Z,3.07
2023-05-03T20:20:49.952Z,3.23
2023-05-03T20:23:19.252Z,3.03
2023-05-03T20:25:47.365Z,3.10
2023-05-03T20:28:15.189Z,3.50
2023-05-03T20:30:43.050Z,2.90
2023-05-03T20:33:11.020Z,2.87
2023-05-03T20:35:38.921Z,3.00
2023-05-03T20:38:06.730Z,3.03
2023-05-03T20:40:36.356Z,3.00
2023-05-03T20:43:04.391Z,2.87
2023-05-03T20:45:33.706Z,3.40
2023-05-03T20:48:01.524Z,3.20
2023-05-03T20:50:30.037Z,3.17
2023-05-03T20:53:08.757Z,2.93
2023-05-03T20:55:39.607Z,3.17
2023-05-03T20:58:07.387Z,3.37
2023-05-03T21:00:35.537Z,2.83
2023-05-03T21:03:03.594Z,3.20
2023-05-03T21:05:31.504Z,3.23
2023-05-03T21:07:59.311Z,3.33
2023-05-03T21:10:27.549Z,2.80
2023-05-03T21:12:56.783Z,3.50
2023-05-03T21:15:24.626Z,2.90
2023-05-03T21:17:52.462Z,2.93
2023-05-03T21:20:20.270Z,3.23
2023-05-03T21:22:48.336Z,3.30
2023-05-03T21:25:16.236Z,3.40
2023-05-03T21:27:44.049Z,3.27
2023-05-03T21:30:14.732Z,3.03
2023-05-03T21:32:44.060Z,3.60
2023-05-03T21:35:12.085Z,3.40
2023-05-03T21:37:39.918Z,3.10
2023-05-03T21:40:09.139Z,3.10
2023-05-03T21:42:37.214Z,3.30
2023-05-03T21:45:05.622Z,3.23
2023-05-03T21:47:34.933Z,3.50
2023-05-03T21:50:02.870Z,3.80
2023-05-03T21:52:30.846Z,3.23
2023-05-03T21:55:00.857Z,3.40
2023-05-03T21:57:29.179Z,3.47
2023-05-03T21:59:58.315Z,3.33
2023-05-03T22:02:26.189Z,4.00
2023-05-03T22:04:55.377Z,3.50
2023-05-03T22:07:23.161Z,4.07
2023-05-03T22:09:51.032Z,3.73
2023-05-03T22:12:24.208Z,3.10
2023-05-03T22:14:53.210Z,3.50
2023-05-03T22:17:21.138Z,3.40
2023-05-03T22:19:49.093Z,3.53
2023-05-03T22:22:18.273Z,3.37
2023-05-03T22:24:46.080Z,3.47
2023-05-03T22:27:13.985Z,3.13
2023-05-03T22:29:41.748Z,3.17
2023-05-03T22:32:09.648Z,3.50
2023-05-03T22:34:37.388Z,3.30
2023-05-03T22:37:05.237Z,2.70
2023-05-03T22:39:34.396Z,3.10
2023-05-03T22:42:02.244Z,2.87
2023-05-03T22:44:30.031Z,3.00
2023-05-03T22:46:57.744Z,3.10
2023-05-03T22:49:25.580Z,2.97
2023-05-03T22:51:53.381Z,2.97
2023-05-03T22:54:21.886Z,3.13
2023-05-03T22:56:51.371Z,2.90
2023-05-03T22:59:19.167Z,3.30
2023-05-03T23:01:49.405Z,3.33
2023-05-03T23:04:17.492Z,3.03
2023-05-03T23:06:45.444Z,3.00
2023-05-03T23:09:13.493Z,3.10
2023-05-03T23:11:41.383Z,3.03
2023-05-03T23:14:10.587Z,2.93
2023-05-03T23:16:39.380Z,3.37
2023-05-03T23:19:07.168Z,2.90
2023-05-03T23:21:34.983Z,3.33
2023-05-03T23:24:03.362Z,3.57
2023-05-03T23:26:31.135Z,3.50
2023-05-03T23:28:59.239Z,3.17
2023-05-03T23:31:30.656Z,2.87
2023-05-03T23:33:59.647Z,3.00
2023-05-03T23:36:27.821Z,3.00
2023-05-03T23:38:56.106Z,3.47
2023-05-03T23:41:23.889Z,2.90
2023-05-03T23:43:51.762Z,3.20
2023-05-03T23:46:19.561Z,3.23
2023-05-03T23:48:48.702Z,3.33
2023-05-03T23:51:16.528Z,3.23
2023-05-03T23:53:44.290Z,3.37
2023-05-03T23:56:12.336Z,3.53
2023-05-03T23:58:40.068Z,3.07
